sensor_id;sensor_type;location;lat;lon;timestamp;P1;P2;P0
69224;PMS1003;56333;51.306;17.056;2024-02-21T00:01:45;16.10;6.90;
69224;PMS1003;56333;51.306;17.056;2024-02-21T00:03:13;20.10;8.90;
69224;PMS1003;56333;51.306;17.056;2024-02-21T00:04:44;15.80;6.90;
69224;PMS1003;56333;51.306;17.056;2024-02-21T00:06:13;14.20;6.80;
69224;PMS1003;56333;51.306;17.056;2024-02-21T00:07:41;15.10;7.10;
69224;PMS1003;56333;51.306;17.056;2024-02-21T00:09:10;15.50;6.30;
69224;PMS1003;56333;51.306;17.056;2024-02-21T00:10:38;12.30;5.40;
69224;PMS1003;56333;51.306;17.056;2024-02-21T00:12:08;13.80;5.10;
69224;PMS1003;56333;51.306;17.056;2024-02-21T00:13:39;16.00;7.30;
69224;PMS1003;56333;51.306;17.056;2024-02-21T00:15:09;12.70;5.20;
69224;PMS1003;56333;51.306;17.056;2024-02-21T00:16:38;16.20;6.60;
69224;PMS1003;56333;51.306;17.056;2024-02-21T00:18:07;11.70;4.60;
69224;PMS1003;56333;51.306;17.056;2024-02-21T00:19:36;12.60;5.10;
69224;PMS1003;56333;51.306;17.056;2024-02-21T00:21:05;14.10;5.10;
69224;PMS1003;56333;51.306;17.056;2024-02-21T00:22:34;14.90;4.90;
69224;PMS1003;56333;51.306;17.056;2024-02-21T00:24:03;16.00;4.90;
69224;PMS1003;56333;51.306;17.056;2024-02-21T00:25:32;12.80;4.90;
69224;PMS1003;56333;51.306;17.056;2024-02-21T00:27:00;11.90;5.20;
69224;PMS1003;56333;51.306;17.056;2024-02-21T00:28:29;13.70;4.60;
69224;PMS1003;56333;51.306;17.056;2024-02-21T00:29:57;14.30;5.60;
69224;PMS1003;56333;51.306;17.056;2024-02-21T00:31:26;13.30;5.20;
69224;PMS1003;56333;51.306;17.056;2024-02-21T00:32:54;13.80;5.30;
69224;PMS1003;56333;51.306;17.056;2024-02-21T00:34:23;13.20;5.30;
69224;PMS1003;56333;51.306;17.056;2024-02-21T00:35:51;13.60;5.20;
69224;PMS1003;56333;51.306;17.056;2024-02-21T00:37:20;14.20;5.50;
69224;PMS1003;56333;51.306;17.056;2024-02-21T00:38:48;11.80;5.20;
69224;PMS1003;56333;51.306;17.056;2024-02-21T00:40:17;12.10;5.00;
69224;PMS1003;56333;51.306;17.056;2024-02-21T00:41:47;15.30;6.10;
69224;PMS1003;56333;51.306;17.056;2024-02-21T00:43:16;11.50;4.90;
69224;PMS1003;56333;51.306;17.056;2024-02-21T00:44:44;13.30;5.50;
69224;PMS1003;56333;51.306;17.056;2024-02-21T00:46:12;15.40;5.80;
69224;PMS1003;56333;51.306;17.056;2024-02-21T00:47:41;16.00;5.50;
69224;PMS1003;56333;51.306;17.056;2024-02-21T00:49:10;15.10;6.90;
69224;PMS1003;56333;51.306;17.056;2024-02-21T00:50:38;19.10;8.80;
69224;PMS1003;56333;51.306;17.056;2024-02-21T00:52:07;12.70;5.70;
69224;PMS1003;56333;51.306;17.056;2024-02-21T00:53:35;17.40;6.80;
69224;PMS1003;56333;51.306;17.056;2024-02-21T00:55:06;14.80;8.10;
69224;PMS1003;56333;51.306;17.056;2024-02-21T00:56:35;17.10;6.10;
69224;PMS1003;56333;51.306;17.056;2024-02-21T00:58:04;16.80;6.80;
69224;PMS1003;56333;51.306;17.056;2024-02-21T00:59:32;12.90;5.10;
69224;PMS1003;56333;51.306;17.056;2024-02-21T01:01:01;16.80;5.80;
69224;PMS1003;56333;51.306;17.056;2024-02-21T01:02:30;14.80;6.50;
69224;PMS1003;56333;51.306;17.056;2024-02-21T01:03:58;14.60;6.30;
69224;PMS1003;56333;51.306;17.056;2024-02-21T01:05:27;13.00;5.30;
69224;PMS1003;56333;51.306;17.056;2024-02-21T01:06:55;12.90;5.60;
69224;PMS1003;56333;51.306;17.056;2024-02-21T01:08:24;14.20;5.30;
69224;PMS1003;56333;51.306;17.056;2024-02-21T01:09:52;14.20;5.80;
69224;PMS1003;56333;51.306;17.056;2024-02-21T01:11:21;14.10;5.80;
69224;PMS1003;56333;51.306;17.056;2024-02-21T01:12:50;13.60;4.80;
69224;PMS1003;56333;51.306;17.056;2024-02-21T01:14:18;14.70;5.80;
69224;PMS1003;56333;51.306;17.056;2024-02-21T01:15:47;13.30;5.80;
69224;PMS1003;56333;51.306;17.056;2024-02-21T01:17:15;15.50;6.00;
69224;PMS1003;56333;51.306;17.056;2024-02-21T01:18:43;15.20;6.50;
69224;PMS1003;56333;51.306;17.056;2024-02-21T01:20:13;14.80;6.40;
69224;PMS1003;56333;51.306;17.056;2024-02-21T01:21:43;17.50;6.70;
69224;PMS1003;56333;51.306;17.056;2024-02-21T01:23:12;15.40;6.90;
69224;PMS1003;56333;51.306;17.056;2024-02-21T01:24:40;13.50;5.60;
69224;PMS1003;56333;51.306;17.056;2024-02-21T01:26:08;14.90;6.40;
69224;PMS1003;56333;51.306;17.056;2024-02-21T01:27:39;12.50;5.10;
69224;PMS1003;56333;51.306;17.056;2024-02-21T01:29:09;14.70;5.30;
69224;PMS1003;56333;51.306;17.056;2024-02-21T01:30:37;13.90;5.40;
69224;PMS1003;56333;51.306;17.056;2024-02-21T01:32:06;13.80;4.90;
69224;PMS1003;56333;51.306;17.056;2024-02-21T01:33:35;13.90;5.00;
69224;PMS1003;56333;51.306;17.056;2024-02-21T01:35:05;16.30;5.40;
69224;PMS1003;56333;51.306;17.056;2024-02-21T01:36:35;15.10;5.30;
69224;PMS1003;56333;51.306;17.056;2024-02-21T01:38:03;15.00;5.00;
69224;PMS1003;56333;51.306;17.056;2024-02-21T01:39:31;14.70;5.30;
69224;PMS1003;56333;51.306;17.056;2024-02-21T01:41:00;12.60;5.00;
69224;PMS1003;56333;51.306;17.056;2024-02-21T01:42:29;15.40;5.60;
69224;PMS1003;56333;51.306;17.056;2024-02-21T01:43:57;16.20;5.40;
69224;PMS1003;56333;51.306;17.056;2024-02-21T01:45:26;13.50;5.00;
69224;PMS1003;56333;51.306;17.056;2024-02-21T01:46:55;14.60;5.20;
69224;PMS1003;56333;51.306;17.056;2024-02-21T01:48:25;15.20;5.40;
69224;PMS1003;56333;51.306;17.056;2024-02-21T01:49:53;14.80;5.60;
69224;PMS1003;56333;51.306;17.056;2024-02-21T01:51:22;14.60;5.30;
69224;PMS1003;56333;51.306;17.056;2024-02-21T01:52:51;12.70;5.10;
69224;PMS1003;56333;51.306;17.056;2024-02-21T01:54:21;10.10;4.40;
69224;PMS1003;56333;51.306;17.056;2024-02-21T01:55:50;14.10;6.20;
69224;PMS1003;56333;51.306;17.056;2024-02-21T01:57:18;13.00;6.00;
69224;PMS1003;56333;51.306;17.056;2024-02-21T01:58:48;15.00;6.60;
69224;PMS1003;56333;51.306;17.056;2024-02-21T02:00:18;13.70;5.00;
69224;PMS1003;56333;51.306;17.056;2024-02-21T02:01:49;13.00;4.90;
69224;PMS1003;56333;51.306;17.056;2024-02-21T02:03:18;13.50;6.00;
69224;PMS1003;56333;51.306;17.056;2024-02-21T02:04:47;16.40;7.00;
69224;PMS1003;56333;51.306;17.056;2024-02-21T02:06:16;15.10;7.80;
69224;PMS1003;56333;51.306;17.056;2024-02-21T02:07:44;15.90;6.60;
69224;PMS1003;56333;51.306;17.056;2024-02-21T02:09:13;16.40;6.30;
69224;PMS1003;56333;51.306;17.056;2024-02-21T02:10:42;13.60;5.60;
69224;PMS1003;56333;51.306;17.056;2024-02-21T02:12:11;15.10;6.30;
69224;PMS1003;56333;51.306;17.056;2024-02-21T02:13:39;13.20;5.80;
69224;PMS1003;56333;51.306;17.056;2024-02-21T02:15:09;13.40;5.40;
69224;PMS1003;56333;51.306;17.056;2024-02-21T02:16:38;14.70;6.00;
69224;PMS1003;56333;51.306;17.056;2024-02-21T02:18:07;12.60;5.40;
69224;PMS1003;56333;51.306;17.056;2024-02-21T02:19:35;13.30;5.60;
69224;PMS1003;56333;51.306;17.056;2024-02-21T02:21:05;12.90;5.30;
69224;PMS1003;56333;51.306;17.056;2024-02-21T02:22:38;13.60;5.40;
69224;PMS1003;56333;51.306;17.056;2024-02-21T02:24:08;14.60;4.90;
69224;PMS1003;56333;51.306;17.056;2024-02-21T02:25:37;12.40;5.00;
69224;PMS1003;56333;51.306;17.056;2024-02-21T02:27:06;13.50;5.20;
69224;PMS1003;56333;51.306;17.056;2024-02-21T02:28:34;11.40;4.50;
69224;PMS1003;56333;51.306;17.056;2024-02-21T02:30:03;14.80;5.10;
69224;PMS1003;56333;51.306;17.056;2024-02-21T02:31:34;16.40;5.10;
69224;PMS1003;56333;51.306;17.056;2024-02-21T02:33:04;13.90;4.80;
69224;PMS1003;56333;51.306;17.056;2024-02-21T02:34:32;12.50;5.00;
69224;PMS1003;56333;51.306;17.056;2024-02-21T02:36:00;11.10;5.00;
69224;PMS1003;56333;51.306;17.056;2024-02-21T02:37:29;11.70;4.60;
69224;PMS1003;56333;51.306;17.056;2024-02-21T02:38:57;11.30;4.50;
69224;PMS1003;56333;51.306;17.056;2024-02-21T02:40:26;12.20;4.80;
69224;PMS1003;56333;51.306;17.056;2024-02-21T02:41:55;12.30;4.70;
69224;PMS1003;56333;51.306;17.056;2024-02-21T02:43:23;14.60;5.30;
69224;PMS1003;56333;51.306;17.056;2024-02-21T02:44:52;11.20;4.80;
69224;PMS1003;56333;51.306;17.056;2024-02-21T02:46:20;13.70;4.70;
69224;PMS1003;56333;51.306;17.056;2024-02-21T02:47:48;13.40;5.20;
69224;PMS1003;56333;51.306;17.056;2024-02-21T02:49:17;13.20;5.00;
69224;PMS1003;56333;51.306;17.056;2024-02-21T02:50:46;12.40;4.90;
69224;PMS1003;56333;51.306;17.056;2024-02-21T02:52:15;13.60;4.50;
69224;PMS1003;56333;51.306;17.056;2024-02-21T02:53:43;11.90;4.50;
69224;PMS1003;56333;51.306;17.056;2024-02-21T02:55:12;13.30;5.20;
69224;PMS1003;56333;51.306;17.056;2024-02-21T02:56:40;12.70;4.90;
69224;PMS1003;56333;51.306;17.056;2024-02-21T02:58:09;14.80;5.20;
69224;PMS1003;56333;51.306;17.056;2024-02-21T02:59:38;10.30;4.60;
69224;PMS1003;56333;51.306;17.056;2024-02-21T03:01:08;14.60;5.10;
69224;PMS1003;56333;51.306;17.056;2024-02-21T03:02:37;12.60;4.40;
69224;PMS1003;56333;51.306;17.056;2024-02-21T03:04:07;13.50;5.10;
69224;PMS1003;56333;51.306;17.056;2024-02-21T03:05:35;13.10;4.70;
69224;PMS1003;56333;51.306;17.056;2024-02-21T03:07:04;14.30;5.30;
69224;PMS1003;56333;51.306;17.056;2024-02-21T03:08:32;16.90;5.90;
69224;PMS1003;56333;51.306;17.056;2024-02-21T03:10:01;14.30;5.20;
69224;PMS1003;56333;51.306;17.056;2024-02-21T03:11:30;12.40;5.20;
69224;PMS1003;56333;51.306;17.056;2024-02-21T03:12:59;11.70;5.00;
69224;PMS1003;56333;51.306;17.056;2024-02-21T03:14:27;13.00;5.20;
69224;PMS1003;56333;51.306;17.056;2024-02-21T03:15:55;13.20;4.90;
69224;PMS1003;56333;51.306;17.056;2024-02-21T03:17:24;10.70;4.70;
69224;PMS1003;56333;51.306;17.056;2024-02-21T03:18:53;13.10;5.00;
69224;PMS1003;56333;51.306;17.056;2024-02-21T03:20:22;12.30;5.30;
69224;PMS1003;56333;51.306;17.056;2024-02-21T03:21:51;13.80;5.30;
69224;PMS1003;56333;51.306;17.056;2024-02-21T03:23:19;13.00;5.20;
69224;PMS1003;56333;51.306;17.056;2024-02-21T03:24:47;11.50;5.10;
69224;PMS1003;56333;51.306;17.056;2024-02-21T03:26:16;12.50;5.00;
69224;PMS1003;56333;51.306;17.056;2024-02-21T03:27:44;15.20;5.90;
69224;PMS1003;56333;51.306;17.056;2024-02-21T03:29:13;13.60;5.50;
69224;PMS1003;56333;51.306;17.056;2024-02-21T03:30:42;13.60;5.60;
69224;PMS1003;56333;51.306;17.056;2024-02-21T03:32:11;11.80;5.20;
69224;PMS1003;56333;51.306;17.056;2024-02-21T03:33:40;14.60;6.00;
69224;PMS1003;56333;51.306;17.056;2024-02-21T03:35:10;14.80;6.00;
69224;PMS1003;56333;51.306;17.056;2024-02-21T03:36:38;12.60;5.30;
69224;PMS1003;56333;51.306;17.056;2024-02-21T03:38:06;13.50;5.90;
69224;PMS1003;56333;51.306;17.056;2024-02-21T03:39:35;12.20;5.30;
69224;PMS1003;56333;51.306;17.056;2024-02-21T03:41:04;11.80;5.30;
69224;PMS1003;56333;51.306;17.056;2024-02-21T03:42:32;11.70;5.00;
69224;PMS1003;56333;51.306;17.056;2024-02-21T03:44:01;13.20;5.60;
69224;PMS1003;56333;51.306;17.056;2024-02-21T03:45:29;12.20;4.90;
69224;PMS1003;56333;51.306;17.056;2024-02-21T03:46:59;11.50;4.70;
69224;PMS1003;56333;51.306;17.056;2024-02-21T03:48:28;11.80;5.40;
69224;PMS1003;56333;51.306;17.056;2024-02-21T03:49:56;14.40;5.60;
69224;PMS1003;56333;51.306;17.056;2024-02-21T03:51:26;13.20;5.00;
69224;PMS1003;56333;51.306;17.056;2024-02-21T03:52:54;12.90;5.20;
69224;PMS1003;56333;51.306;17.056;2024-02-21T03:54:23;11.10;4.90;
69224;PMS1003;56333;51.306;17.056;2024-02-21T03:55:51;11.90;4.90;
69224;PMS1003;56333;51.306;17.056;2024-02-21T03:57:20;13.40;5.10;
69224;PMS1003;56333;51.306;17.056;2024-02-21T03:58:48;15.90;5.70;
69224;PMS1003;56333;51.306;17.056;2024-02-21T04:00:19;12.70;5.00;
69224;PMS1003;56333;51.306;17.056;2024-02-21T04:01:48;14.10;5.30;
69224;PMS1003;56333;51.306;17.056;2024-02-21T04:03:19;12.50;4.80;
69224;PMS1003;56333;51.306;17.056;2024-02-21T04:04:48;13.10;5.10;
69224;PMS1003;56333;51.306;17.056;2024-02-21T04:06:16;12.80;5.10;
69224;PMS1003;56333;51.306;17.056;2024-02-21T04:07:45;12.00;5.00;
69224;PMS1003;56333;51.306;17.056;2024-02-21T04:09:14;11.80;5.10;
69224;PMS1003;56333;51.306;17.056;2024-02-21T04:10:44;14.70;4.90;
69224;PMS1003;56333;51.306;17.056;2024-02-21T04:12:12;11.50;5.10;
69224;PMS1003;56333;51.306;17.056;2024-02-21T04:13:40;13.70;5.90;
69224;PMS1003;56333;51.306;17.056;2024-02-21T04:15:10;16.60;6.40;
69224;PMS1003;56333;51.306;17.056;2024-02-21T04:16:38;12.60;5.50;
69224;PMS1003;56333;51.306;17.056;2024-02-21T04:18:07;14.30;5.80;
69224;PMS1003;56333;51.306;17.056;2024-02-21T04:19:35;10.70;5.40;
69224;PMS1003;56333;51.306;17.056;2024-02-21T04:21:04;12.80;5.50;
69224;PMS1003;56333;51.306;17.056;2024-02-21T04:22:33;11.80;5.50;
69224;PMS1003;56333;51.306;17.056;2024-02-21T04:24:02;14.70;5.60;
69224;PMS1003;56333;51.306;17.056;2024-02-21T04:25:30;11.20;5.80;
69224;PMS1003;56333;51.306;17.056;2024-02-21T04:26:59;12.60;5.80;
69224;PMS1003;56333;51.306;17.056;2024-02-21T04:28:27;14.80;6.10;
69224;PMS1003;56333;51.306;17.056;2024-02-21T04:29:56;14.60;6.20;
69224;PMS1003;56333;51.306;17.056;2024-02-21T04:31:24;15.10;6.30;
69224;PMS1003;56333;51.306;17.056;2024-02-21T04:32:53;13.00;6.20;
69224;PMS1003;56333;51.306;17.056;2024-02-21T04:34:21;13.10;6.40;
69224;PMS1003;56333;51.306;17.056;2024-02-21T04:35:50;12.90;6.70;
69224;PMS1003;56333;51.306;17.056;2024-02-21T04:37:21;14.40;7.10;
69224;PMS1003;56333;51.306;17.056;2024-02-21T04:38:50;14.90;6.90;
69224;PMS1003;56333;51.306;17.056;2024-02-21T04:40:19;13.20;6.30;
69224;PMS1003;56333;51.306;17.056;2024-02-21T04:41:47;14.40;6.70;
69224;PMS1003;56333;51.306;17.056;2024-02-21T04:43:15;12.80;6.30;
69224;PMS1003;56333;51.306;17.056;2024-02-21T04:44:44;15.00;6.60;
69224;PMS1003;56333;51.306;17.056;2024-02-21T04:46:13;15.50;6.40;
69224;PMS1003;56333;51.306;17.056;2024-02-21T04:47:42;16.40;7.00;
69224;PMS1003;56333;51.306;17.056;2024-02-21T04:49:11;17.20;7.20;
69224;PMS1003;56333;51.306;17.056;2024-02-21T04:50:40;15.90;7.20;
69224;PMS1003;56333;51.306;17.056;2024-02-21T04:52:08;14.00;7.00;
69224;PMS1003;56333;51.306;17.056;2024-02-21T04:53:37;14.30;6.90;
69224;PMS1003;56333;51.306;17.056;2024-02-21T04:55:06;16.80;8.00;
69224;PMS1003;56333;51.306;17.056;2024-02-21T04:56:35;13.20;7.20;
69224;PMS1003;56333;51.306;17.056;2024-02-21T04:58:04;14.70;7.20;
69224;PMS1003;56333;51.306;17.056;2024-02-21T04:59:32;14.60;8.10;
69224;PMS1003;56333;51.306;17.056;2024-02-21T05:01:01;18.40;9.80;
69224;PMS1003;56333;51.306;17.056;2024-02-21T05:02:30;16.70;9.70;
69224;PMS1003;56333;51.306;17.056;2024-02-21T05:03:59;16.40;8.50;
69224;PMS1003;56333;51.306;17.056;2024-02-21T05:05:28;14.30;7.50;
69224;PMS1003;56333;51.306;17.056;2024-02-21T05:06:56;13.00;7.00;
69224;PMS1003;56333;51.306;17.056;2024-02-21T05:08:26;17.50;7.50;
69224;PMS1003;56333;51.306;17.056;2024-02-21T05:09:56;14.70;7.10;
69224;PMS1003;56333;51.306;17.056;2024-02-21T05:11:25;14.70;6.90;
69224;PMS1003;56333;51.306;17.056;2024-02-21T05:12:53;13.40;7.30;
69224;PMS1003;56333;51.306;17.056;2024-02-21T05:14:22;13.90;7.00;
69224;PMS1003;56333;51.306;17.056;2024-02-21T05:15:50;13.90;6.90;
69224;PMS1003;56333;51.306;17.056;2024-02-21T05:17:19;14.50;6.90;
69224;PMS1003;56333;51.306;17.056;2024-02-21T05:18:47;14.20;6.90;
69224;PMS1003;56333;51.306;17.056;2024-02-21T05:20:16;13.30;6.80;
69224;PMS1003;56333;51.306;17.056;2024-02-21T05:21:45;16.00;7.10;
69224;PMS1003;56333;51.306;17.056;2024-02-21T05:23:13;12.80;6.60;
69224;PMS1003;56333;51.306;17.056;2024-02-21T05:24:43;14.10;7.00;
69224;PMS1003;56333;51.306;17.056;2024-02-21T05:26:11;12.50;6.60;
69224;PMS1003;56333;51.306;17.056;2024-02-21T05:27:40;15.10;6.70;
69224;PMS1003;56333;51.306;17.056;2024-02-21T05:29:08;14.00;7.20;
69224;PMS1003;56333;51.306;17.056;2024-02-21T05:30:37;13.40;7.20;
69224;PMS1003;56333;51.306;17.056;2024-02-21T05:32:07;12.50;6.90;
69224;PMS1003;56333;51.306;17.056;2024-02-21T05:33:36;15.10;6.90;
69224;PMS1003;56333;51.306;17.056;2024-02-21T05:35:05;15.30;7.40;
69224;PMS1003;56333;51.306;17.056;2024-02-21T05:36:34;14.20;7.10;
69224;PMS1003;56333;51.306;17.056;2024-02-21T05:38:03;12.50;7.00;
69224;PMS1003;56333;51.306;17.056;2024-02-21T05:39:37;12.30;6.60;
69224;PMS1003;56333;51.306;17.056;2024-02-21T05:41:06;13.90;7.10;
69224;PMS1003;56333;51.306;17.056;2024-02-21T05:42:34;11.90;7.20;
69224;PMS1003;56333;51.306;17.056;2024-02-21T05:44:03;12.50;6.80;
69224;PMS1003;56333;51.306;17.056;2024-02-21T05:45:31;13.30;6.50;
69224;PMS1003;56333;51.306;17.056;2024-02-21T05:47:00;15.60;7.40;
69224;PMS1003;56333;51.306;17.056;2024-02-21T05:48:28;16.00;7.60;
69224;PMS1003;56333;51.306;17.056;2024-02-21T05:49:57;14.60;7.70;
69224;PMS1003;56333;51.306;17.056;2024-02-21T05:51:25;14.30;7.10;
69224;PMS1003;56333;51.306;17.056;2024-02-21T05:52:55;15.70;7.60;
69224;PMS1003;56333;51.306;17.056;2024-02-21T05:54:24;16.30;7.50;
69224;PMS1003;56333;51.306;17.056;2024-02-21T05:55:53;15.70;7.90;
69224;PMS1003;56333;51.306;17.056;2024-02-21T05:57:22;14.50;7.80;
69224;PMS1003;56333;51.306;17.056;2024-02-21T05:58:51;15.80;8.00;
69224;PMS1003;56333;51.306;17.056;2024-02-21T06:00:20;14.00;7.30;
69224;PMS1003;56333;51.306;17.056;2024-02-21T06:01:56;13.90;7.20;
69224;PMS1003;56333;51.306;17.056;2024-02-21T06:03:24;14.20;7.80;
69224;PMS1003;56333;51.306;17.056;2024-02-21T06:04:53;17.60;9.20;
69224;PMS1003;56333;51.306;17.056;2024-02-21T06:06:22;15.10;7.80;
69224;PMS1003;56333;51.306;17.056;2024-02-21T06:07:50;15.90;8.20;
69224;PMS1003;56333;51.306;17.056;2024-02-21T06:09:19;14.30;7.50;
69224;PMS1003;56333;51.306;17.056;2024-02-21T06:10:47;15.30;7.40;
69224;PMS1003;56333;51.306;17.056;2024-02-21T06:12:20;13.90;7.20;
69224;PMS1003;56333;51.306;17.056;2024-02-21T06:13:48;13.10;7.50;
69224;PMS1003;56333;51.306;17.056;2024-02-21T06:15:17;18.00;7.20;
69224;PMS1003;56333;51.306;17.056;2024-02-21T06:16:47;12.40;6.80;
69224;PMS1003;56333;51.306;17.056;2024-02-21T06:18:16;16.40;8.20;
69224;PMS1003;56333;51.306;17.056;2024-02-21T06:19:46;13.60;7.10;
69224;PMS1003;56333;51.306;17.056;2024-02-21T06:21:14;14.30;7.30;
69224;PMS1003;56333;51.306;17.056;2024-02-21T06:22:43;11.40;6.70;
69224;PMS1003;56333;51.306;17.056;2024-02-21T06:24:11;14.50;6.80;
69224;PMS1003;56333;51.306;17.056;2024-02-21T06:25:40;12.50;7.00;
69224;PMS1003;56333;51.306;17.056;2024-02-21T06:27:09;13.20;7.40;
69224;PMS1003;56333;51.306;17.056;2024-02-21T06:28:40;15.10;8.10;
69224;PMS1003;56333;51.306;17.056;2024-02-21T06:30:11;15.40;8.00;
69224;PMS1003;56333;51.306;17.056;2024-02-21T06:31:41;13.80;7.70;
69224;PMS1003;56333;51.306;17.056;2024-02-21T06:33:10;15.40;8.30;
69224;PMS1003;56333;51.306;17.056;2024-02-21T06:34:39;13.90;8.30;
69224;PMS1003;56333;51.306;17.056;2024-02-21T06:36:08;14.50;8.20;
69224;PMS1003;56333;51.306;17.056;2024-02-21T06:37:37;14.10;8.30;
69224;PMS1003;56333;51.306;17.056;2024-02-21T06:39:05;14.10;8.00;
69224;PMS1003;56333;51.306;17.056;2024-02-21T06:40:34;13.50;7.60;
69224;PMS1003;56333;51.306;17.056;2024-02-21T06:42:06;13.10;7.80;
69224;PMS1003;56333;51.306;17.056;2024-02-21T06:43:34;13.90;7.90;
69224;PMS1003;56333;51.306;17.056;2024-02-21T06:45:04;14.80;8.10;
69224;PMS1003;56333;51.306;17.056;2024-02-21T06:46:33;16.10;9.30;
69224;PMS1003;56333;51.306;17.056;2024-02-21T06:48:01;15.40;8.10;
69224;PMS1003;56333;51.306;17.056;2024-02-21T06:49:31;16.40;9.10;
69224;PMS1003;56333;51.306;17.056;2024-02-21T06:51:00;16.00;8.10;
69224;PMS1003;56333;51.306;17.056;2024-02-21T06:52:29;14.20;8.50;
69224;PMS1003;56333;51.306;17.056;2024-02-21T06:53:57;15.80;8.40;
69224;PMS1003;56333;51.306;17.056;2024-02-21T06:55:26;16.00;9.00;
69224;PMS1003;56333;51.306;17.056;2024-02-21T06:56:56;13.10;8.30;
69224;PMS1003;56333;51.306;17.056;2024-02-21T06:58:24;15.40;8.40;
69224;PMS1003;56333;51.306;17.056;2024-02-21T06:59:53;15.10;8.30;
69224;PMS1003;56333;51.306;17.056;2024-02-21T07:01:22;14.90;8.60;
69224;PMS1003;56333;51.306;17.056;2024-02-21T07:02:52;12.80;8.20;
69224;PMS1003;56333;51.306;17.056;2024-02-21T07:04:20;14.60;8.20;
69224;PMS1003;56333;51.306;17.056;2024-02-21T07:05:49;14.00;8.40;
69224;PMS1003;56333;51.306;17.056;2024-02-21T07:07:18;13.10;8.30;
69224;PMS1003;56333;51.306;17.056;2024-02-21T07:08:46;13.60;7.60;
69224;PMS1003;56333;51.306;17.056;2024-02-21T07:10:16;14.50;8.10;
69224;PMS1003;56333;51.306;17.056;2024-02-21T07:11:45;13.80;7.80;
69224;PMS1003;56333;51.306;17.056;2024-02-21T07:13:13;15.30;8.00;
69224;PMS1003;56333;51.306;17.056;2024-02-21T07:14:44;14.30;7.90;
69224;PMS1003;56333;51.306;17.056;2024-02-21T07:16:12;13.00;7.20;
69224;PMS1003;56333;51.306;17.056;2024-02-21T07:17:41;15.60;7.90;
69224;PMS1003;56333;51.306;17.056;2024-02-21T07:19:10;14.90;7.60;
69224;PMS1003;56333;51.306;17.056;2024-02-21T07:20:39;14.40;6.90;
69224;PMS1003;56333;51.306;17.056;2024-02-21T07:22:08;13.90;7.30;
69224;PMS1003;56333;51.306;17.056;2024-02-21T07:23:36;12.60;7.50;
69224;PMS1003;56333;51.306;17.056;2024-02-21T07:25:06;13.80;7.70;
69224;PMS1003;56333;51.306;17.056;2024-02-21T07:26:36;12.00;6.90;
69224;PMS1003;56333;51.306;17.056;2024-02-21T07:28:08;13.10;7.00;
69224;PMS1003;56333;51.306;17.056;2024-02-21T07:29:36;14.70;7.70;
69224;PMS1003;56333;51.306;17.056;2024-02-21T07:31:05;12.90;7.50;
69224;PMS1003;56333;51.306;17.056;2024-02-21T07:32:34;15.50;7.60;
69224;PMS1003;56333;51.306;17.056;2024-02-21T07:34:02;13.70;7.70;
69224;PMS1003;56333;51.306;17.056;2024-02-21T07:35:31;15.20;8.00;
69224;PMS1003;56333;51.306;17.056;2024-02-21T07:37:00;15.10;8.30;
69224;PMS1003;56333;51.306;17.056;2024-02-21T07:38:28;15.30;8.50;
69224;PMS1003;56333;51.306;17.056;2024-02-21T07:39:57;11.80;7.60;
69224;PMS1003;56333;51.306;17.056;2024-02-21T07:41:26;13.50;7.50;
69224;PMS1003;56333;51.306;17.056;2024-02-21T07:42:55;13.10;7.50;
69224;PMS1003;56333;51.306;17.056;2024-02-21T07:44:24;12.90;7.70;
69224;PMS1003;56333;51.306;17.056;2024-02-21T07:45:52;12.70;7.80;
69224;PMS1003;56333;51.306;17.056;2024-02-21T07:47:20;13.00;7.60;
69224;PMS1003;56333;51.306;17.056;2024-02-21T07:48:50;16.10;7.40;
69224;PMS1003;56333;51.306;17.056;2024-02-21T07:50:24;13.40;7.50;
69224;PMS1003;56333;51.306;17.056;2024-02-21T07:51:53;12.50;7.50;
69224;PMS1003;56333;51.306;17.056;2024-02-21T07:53:22;13.20;7.30;
69224;PMS1003;56333;51.306;17.056;2024-02-21T07:54:51;13.40;7.60;
69224;PMS1003;56333;51.306;17.056;2024-02-21T07:56:19;13.90;8.70;
69224;PMS1003;56333;51.306;17.056;2024-02-21T07:57:49;16.20;9.80;
69224;PMS1003;56333;51.306;17.056;2024-02-21T07:59:20;29.80;18.10;
69224;PMS1003;56333;51.306;17.056;2024-02-21T08:00:48;20.70;11.80;
69224;PMS1003;56333;51.306;17.056;2024-02-21T08:02:17;20.10;12.70;
69224;PMS1003;56333;51.306;17.056;2024-02-21T08:03:46;22.20;12.90;
69224;PMS1003;56333;51.306;17.056;2024-02-21T08:05:15;20.80;13.70;
69224;PMS1003;56333;51.306;17.056;2024-02-21T08:06:43;22.00;14.10;
69224;PMS1003;56333;51.306;17.056;2024-02-21T08:08:14;25.80;16.80;
69224;PMS1003;56333;51.306;17.056;2024-02-21T08:09:45;19.20;11.00;
69224;PMS1003;56333;51.306;17.056;2024-02-21T08:11:13;17.40;10.10;
69224;PMS1003;56333;51.306;17.056;2024-02-21T08:12:42;22.40;14.90;
69224;PMS1003;56333;51.306;17.056;2024-02-21T08:14:10;23.80;15.50;
69224;PMS1003;56333;51.306;17.056;2024-02-21T08:15:42;25.60;15.70;
69224;PMS1003;56333;51.306;17.056;2024-02-21T08:17:10;19.70;13.00;
69224;PMS1003;56333;51.306;17.056;2024-02-21T08:18:38;16.40;10.70;
69224;PMS1003;56333;51.306;17.056;2024-02-21T08:20:11;22.20;15.50;
69224;PMS1003;56333;51.306;17.056;2024-02-21T08:21:41;20.80;13.90;
69224;PMS1003;56333;51.306;17.056;2024-02-21T08:23:09;22.00;14.80;
69224;PMS1003;56333;51.306;17.056;2024-02-21T08:24:38;20.90;14.20;
69224;PMS1003;56333;51.306;17.056;2024-02-21T08:26:07;21.40;14.30;
69224;PMS1003;56333;51.306;17.056;2024-02-21T08:27:36;17.50;11.40;
69224;PMS1003;56333;51.306;17.056;2024-02-21T08:29:05;13.90;8.00;
69224;PMS1003;56333;51.306;17.056;2024-02-21T08:30:34;31.30;21.70;
69224;PMS1003;56333;51.306;17.056;2024-02-21T08:32:02;13.00;8.20;
69224;PMS1003;56333;51.306;17.056;2024-02-21T08:33:32;13.30;7.30;
69224;PMS1003;56333;51.306;17.056;2024-02-21T08:35:00;15.90;8.20;
69224;PMS1003;56333;51.306;17.056;2024-02-21T08:36:30;12.20;7.10;
69224;PMS1003;56333;51.306;17.056;2024-02-21T08:37:59;12.50;6.40;
69224;PMS1003;56333;51.306;17.056;2024-02-21T08:39:28;9.30;6.30;
69224;PMS1003;56333;51.306;17.056;2024-02-21T08:40:56;11.30;6.30;
69224;PMS1003;56333;51.306;17.056;2024-02-21T08:42:25;12.60;6.20;
69224;PMS1003;56333;51.306;17.056;2024-02-21T08:43:55;11.60;6.60;
69224;PMS1003;56333;51.306;17.056;2024-02-21T08:45:23;14.70;7.50;
69224;PMS1003;56333;51.306;17.056;2024-02-21T08:46:52;14.00;7.90;
69224;PMS1003;56333;51.306;17.056;2024-02-21T08:48:20;12.70;6.30;
69224;PMS1003;56333;51.306;17.056;2024-02-21T08:49:50;9.20;5.40;
69224;PMS1003;56333;51.306;17.056;2024-02-21T08:51:19;12.60;6.70;
69224;PMS1003;56333;51.306;17.056;2024-02-21T08:52:47;12.00;6.10;
69224;PMS1003;56333;51.306;17.056;2024-02-21T08:54:16;11.50;6.20;
69224;PMS1003;56333;51.306;17.056;2024-02-21T08:55:44;13.00;6.30;
69224;PMS1003;56333;51.306;17.056;2024-02-21T08:57:13;11.90;6.60;